Time;durP1;ratioP1;P1;durP2;ratioP2;P2;SDS_P1;SDS_P2;PMS_P1;PMS_P2;Temp;Humidity;BMP_temperature;BMP_pressure;BME280_temperature;BME280_humidity;BME280_pressure;Samples;Min_cycle;Max_cycle;Signal;HPM_P1;HPM_P2
2022/07/15 00:01:03;;;;;;;4.10;1.60;;;13.90;99.90;;;;;;4970642;28;20027;-79
2022/07/15 00:03:29;;;;;;;4.05;1.45;;;13.80;99.90;;;;;;4959615;28;20019;-79
2022/07/15 00:05:55;;;;;;;4.07;2.20;;;13.70;99.90;;;;;;4970905;28;20053;-79
2022/07/15 00:08:20;;;;;;;3.38;1.75;;;13.60;99.90;;;;;;4969483;28;20109;-79
2022/07/15 00:10:46;;;;;;;4.38;1.67;;;13.60;99.90;;;;;;4971477;28;20038;-79
2022/07/15 00:13:12;;;;;;;3.38;1.80;;;13.60;99.90;;;;;;4974322;28;20046;-78
2022/07/15 00:15:38;;;;;;;3.90;1.80;;;13.60;99.90;;;;;;4973908;28;20034;-78
2022/07/15 01:19:01;;;;;;;2.25;2.03;;;12.20;99.90;;;;;;4934029;29;20666;-78
2022/07/15 01:21:27;;;;;;;2.80;1.73;;;12.10;99.90;;;;;;4935029;29;20028;-78
2022/07/15 01:23:52;;;;;;;3.58;2.00;;;12.00;99.90;;;;;;4935035;29;20027;-78
2022/07/15 01:26:18;;;;;;;3.50;1.98;;;12.00;99.90;;;;;;4935932;29;20039;-78
2022/07/15 01:28:44;;;;;;;3.72;2.13;;;11.90;99.90;;;;;;4935965;29;20052;-78
2022/07/15 01:31:10;;;;;;;1.60;1.50;;;11.90;99.90;;;;;;4935911;29;20031;-78
2022/07/15 01:33:38;;;;;;;2.33;1.92;;;11.80;99.90;;;;;;4935673;29;20019;-78
2022/07/15 01:36:04;;;;;;;2.15;1.77;;;11.80;99.90;;;;;;4935981;29;20024;-78
2022/07/15 01:38:30;;;;;;;3.42;2.30;;;11.80;99.90;;;;;;4935894;29;20024;-78
2022/07/15 01:40:55;;;;;;;4.80;2.03;;;11.70;99.90;;;;;;4935757;29;20020;-78
2022/07/15 01:43:22;;;;;;;2.55;2.15;;;11.70;99.90;;;;;;4935502;29;20083;-78
2022/07/15 01:45:48;;;;;;;4.57;1.85;;;11.70;99.90;;;;;;4935319;29;20020;-78
2022/07/15 01:51:09;;;;;;;6.40;2.47;;;11.80;99.90;;;;;;4916395;29;20044;-79
2022/07/15 01:53:36;;;;;;;4.03;2.42;;;11.80;99.90;;;;;;4935143;29;20032;-78
2022/07/15 01:56:02;;;;;;;6.50;2.95;;;11.80;99.90;;;;;;4935263;29;20046;-78
2022/07/15 01:58:28;;;;;;;4.32;2.40;;;11.80;99.90;;;;;;4934899;29;20019;-78
2022/07/15 02:00:53;;;;;;;3.97;2.53;;;11.90;99.90;;;;;;4934638;29;20020;-78
2022/07/15 02:03:19;;;;;;;3.90;2.42;;;11.90;99.90;;;;;;4933686;29;20114;-78
2022/07/15 02:05:45;;;;;;;3.90;2.05;;;11.90;99.90;;;;;;4934939;29;20090;-78
2022/07/15 02:08:11;;;;;;;5.70;2.28;;;11.90;99.90;;;;;;4935182;29;20020;-78
2022/07/15 02:10:39;;;;;;;2.58;2.20;;;11.90;99.90;;;;;;4935150;29;20071;-78
2022/07/15 02:13:06;;;;;;;2.85;2.35;;;11.90;99.90;;;;;;4933845;29;20024;-77
2022/07/15 02:15:33;;;;;;;4.70;3.05;;;11.90;99.90;;;;;;4934751;29;20155;-78
2022/07/15 03:17:32;;;;;;;2.70;2.28;;;11.60;99.90;;;;;;5714241;23;20108;-78
2022/07/15 03:19:58;;;;;;;5.72;2.28;;;11.60;99.90;;;;;;4970951;28;20030;-78
2022/07/15 03:22:25;;;;;;;3.20;2.38;;;11.50;99.90;;;;;;4972197;28;20031;-78
2022/07/15 03:24:51;;;;;;;2.75;2.35;;;11.50;99.90;;;;;;4971012;28;20034;-78
2022/07/15 03:27:17;;;;;;;3.95;2.72;;;11.50;99.90;;;;;;4971829;28;20027;-78
2022/07/15 03:29:43;;;;;;;3.15;2.58;;;11.50;99.90;;;;;;4971477;28;20103;-78
2022/07/15 03:32:10;;;;;;;4.25;2.65;;;11.50;99.90;;;;;;4970976;28;20022;-77
2022/07/15 03:34:37;;;;;;;3.78;1.95;;;11.50;99.90;;;;;;4971474;28;20250;-78
2022/07/15 03:37:03;;;;;;;3.05;2.08;;;11.40;99.90;;;;;;4971551;28;20046;-77
2022/07/15 03:39:28;;;;;;;6.90;2.70;;;11.30;99.90;;;;;;4970744;28;20109;-77
2022/07/15 03:41:54;;;;;;;2.53;2.20;;;11.30;99.90;;;;;;4970546;28;20102;-78
2022/07/15 03:44:20;;;;;;;3.58;2.45;;;11.20;99.90;;;;;;4971357;28;20026;-78
2022/07/15 03:46:46;;;;;;;4.13;2.70;;;11.20;99.90;;;;;;4965898;28;20034;-78
2022/07/15 03:49:13;;;;;;;6.28;2.85;;;11.20;99.90;;;;;;4969760;28;20126;-78
2022/07/15 03:51:39;;;;;;;2.90;1.95;;;11.10;99.90;;;;;;4974774;28;20507;-77
2022/07/15 03:54:06;;;;;;;4.75;2.08;;;11.10;99.90;;;;;;4961327;28;20011;-77
2022/07/15 03:56:33;;;;;;;3.00;2.40;;;11.00;99.90;;;;;;4813903;28;20948;-78
2022/07/15 03:58:59;;;;;;;5.30;2.17;;;11.00;99.90;;;;;;4974646;28;20038;-78
2022/07/15 04:01:26;;;;;;;3.92;2.28;;;11.10;99.90;;;;;;4975017;28;20023;-79
2022/07/15 04:03:52;;;;;;;3.88;2.38;;;11.10;99.90;;;;;;4974201;28;20031;-78
2022/07/15 04:06:19;;;;;;;4.32;2.70;;;11.20;99.90;;;;;;4974246;28;20030;-77
2022/07/15 04:08:46;;;;;;;6.75;2.80;;;11.20;99.90;;;;;;4974986;28;20034;-77
2022/07/15 04:11:12;;;;;;;4.30;2.53;;;11.30;99.90;;;;;;4974487;28;20043;-77
2022/07/15 04:13:39;;;;;;;3.05;2.10;;;11.30;99.90;;;;;;4974389;28;20033;-77
2022/07/15 04:16:06;;;;;;;3.85;2.75;;;11.20;99.90;;;;;;4974847;28;20022;-78
2022/07/15 05:18:05;;;;;;;3.05;1.65;;;11.80;99.90;;;;;;5502450;23;20047;-77
2022/07/15 05:20:31;;;;;;;1.88;1.60;;;11.90;99.90;;;;;;4973690;28;20093;-78
2022/07/15 05:22:56;;;;;;;2.28;1.60;;;12.00;99.90;;;;;;4974603;28;20022;-78
2022/07/15 05:25:22;;;;;;;4.20;1.95;;;12.10;99.90;;;;;;4974534;28;20018;-78
2022/07/15 05:27:48;;;;;;;3.03;1.85;;;12.20;99.90;;;;;;4973777;28;20547;-77
2022/07/15 05:30:16;;;;;;;3.08;1.90;;;12.30;99.90;;;;;;4972848;28;20045;-77
2022/07/15 05:32:42;;;;;;;2.38;1.23;;;12.40;99.90;;;;;;4972650;28;20023;-78
2022/07/15 05:35:08;;;;;;;2.95;1.52;;;12.60;99.90;;;;;;4972805;28;20137;-78
2022/07/15 05:37:38;;;;;;;3.22;1.30;;;12.70;99.90;;;;;;4972789;28;20037;-78
2022/07/15 05:40:08;;;;;;;2.08;1.35;;;12.90;99.90;;;;;;4972690;28;20089;-77
2022/07/15 05:42:34;;;;;;;2.25;1.00;;;13.00;99.90;;;;;;4972452;28;20109;-77
2022/07/15 05:45:00;;;;;;;2.17;1.65;;;13.10;99.90;;;;;;4959394;28;20109;-78
2022/07/15 05:47:26;;;;;;;1.38;1.27;;;13.20;99.90;;;;;;4962387;28;20369;-77
2022/07/15 05:49:52;;;;;;;2.42;1.42;;;13.30;99.90;;;;;;4972553;28;20125;-78
2022/07/15 05:52:18;;;;;;;3.50;1.48;;;13.50;99.90;;;;;;4973178;28;20106;-78
2022/07/15 05:54:44;;;;;;;2.53;1.33;;;13.70;99.90;;;;;;4972018;28;20445;-78
2022/07/15 05:57:09;;;;;;;1.38;1.27;;;13.90;99.90;;;;;;4971778;28;20089;-78
2022/07/15 05:59:35;;;;;;;9.30;1.75;;;14.10;99.90;;;;;;4972399;28;20565;-77
2022/07/15 06:02:01;;;;;;;1.77;1.02;;;14.30;99.90;;;;;;4966567;28;20035;-78
2022/07/15 06:04:27;;;;;;;4.55;1.85;;;14.50;99.90;;;;;;4972107;28;20027;-78
2022/07/15 06:06:54;;;;;;;1.70;1.50;;;14.70;99.90;;;;;;4972636;28;21237;-79
2022/07/15 06:09:20;;;;;;;3.10;1.30;;;14.90;99.90;;;;;;4954949;28;20061;-78
2022/07/15 06:11:46;;;;;;;1.45;1.30;;;15.00;99.90;;;;;;4971155;28;20042;-78
2022/07/15 06:14:12;;;;;;;4.10;1.30;;;15.20;99.90;;;;;;4972549;28;20023;-78
2022/07/15 06:16:38;;;;;;;3.20;1.52;;;15.20;99.90;;;;;;4969857;28;20110;-78
2022/07/15 07:18:37;;;;;;;3.30;0.63;;;18.40;99.90;;;;;;5321515;23;20074;-80
2022/07/15 07:21:03;;;;;;;1.13;0.77;;;18.60;98.10;;;;;;4970881;28;20380;-79
2022/07/15 07:23:30;;;;;;;3.30;0.85;;;18.60;94.30;;;;;;4976254;28;20073;-79
2022/07/15 07:25:57;;;;;;;3.08;0.82;;;18.60;97.80;;;;;;4976100;28;20018;-81
2022/07/15 07:28:22;;;;;;;1.40;0.90;;;18.70;96.30;;;;;;4975640;28;20019;-77
2022/07/15 07:30:50;;;;;;;1.85;0.70;;;18.80;94.50;;;;;;4974934;28;20042;-77
2022/07/15 07:33:16;;;;;;;1.55;0.80;;;18.80;97.60;;;;;;4959570;28;20025;-77
2022/07/15 07:35:43;;;;;;;2.67;1.02;;;18.70;94.20;;;;;;4972716;28;20031;-76
2022/07/15 07:38:09;;;;;;;0.88;0.52;;;18.70;93.40;;;;;;4974117;28;20027;-77
2022/07/15 07:40:35;;;;;;;1.88;0.68;;;18.70;93.40;;;;;;4971773;28;20023;-76
2022/07/15 07:43:01;;;;;;;1.20;0.85;;;18.70;96.00;;;;;;4972380;28;20018;-77
2022/07/15 07:45:28;;;;;;;4.20;1.00;;;18.80;95.60;;;;;;4974833;28;20037;-78
2022/07/15 07:47:57;;;;;;;0.98;0.70;;;18.80;94.30;;;;;;4963992;28;20043;-78
2022/07/15 07:50:23;;;;;;;2.30;1.15;;;18.80;96.90;;;;;;4972919;28;20042;-78
2022/07/15 07:52:49;;;;;;;1.42;0.80;;;18.70;94.60;;;;;;4974450;28;20074;-78
2022/07/15 07:55:15;;;;;;;2.42;0.68;;;18.70;95.60;;;;;;4974388;28;20019;-78
2022/07/15 07:57:52;;;;;;;2.60;1.02;;;18.60;96.40;;;;;;4974894;28;20058;-78
2022/07/15 08:00:19;;;;;;;1.98;0.60;;;18.60;99.10;;;;;;4974870;28;20057;-79
2022/07/15 08:02:45;;;;;;;1.58;0.88;;;18.60;99.70;;;;;;4974428;28;20203;-78
2022/07/15 08:05:11;;;;;;;1.13;1.00;;;18.60;95.90;;;;;;4975329;28;20046;-78
2022/07/15 08:07:38;;;;;;;2.40;0.90;;;18.60;98.20;;;;;;4974692;28;20022;-78
2022/07/15 08:10:04;;;;;;;1.88;0.73;;;18.70;99.90;;;;;;4974815;28;20037;-78
2022/07/15 08:12:30;;;;;;;1.17;0.80;;;18.80;94.80;;;;;;4975173;28;20106;-78
2022/07/15 08:14:56;;;;;;;1.85;0.70;;;18.90;92.40;;;;;;4974937;28;20499;-78
2022/07/15 08:17:22;;;;;;;1.95;0.70;;;18.90;96.40;;;;;;4995177;23;20003;-82
2022/07/15 08:19:48;;;;;;;1.75;0.93;;;19.00;97.20;;;;;;4959550;28;20384;-81
2022/07/15 08:22:14;;;;;;;2.35;0.80;;;19.10;97.40;;;;;;4956366;28;20024;-81
2022/07/15 08:24:41;;;;;;;0.90;0.80;;;19.30;96.70;;;;;;4956745;28;20030;-82
2022/07/15 08:27:08;;;;;;;1.75;1.00;;;19.30;90.70;;;;;;4954870;28;20081;-81
2022/07/15 08:29:34;;;;;;;1.45;1.00;;;19.30;93.50;;;;;;4955132;29;20038;-81
2022/07/15 08:32:00;;;;;;;2.72;0.70;;;19.30;91.90;;;;;;4954485;28;20031;-81
2022/07/15 08:34:26;;;;;;;1.83;0.98;;;19.30;92.70;;;;;;4955111;28;20098;-80
2022/07/15 08:36:52;;;;;;;1.42;0.80;;;19.50;91.10;;;;;;4954754;28;20155;-81
2022/07/15 08:39:18;;;;;;;1.95;0.73;;;19.70;90.50;;;;;;4950755;28;20614;-81
2022/07/15 08:41:44;;;;;;;2.60;0.80;;;20.10;82.40;;;;;;4947798;29;20069;-82
2022/07/15 08:44:10;;;;;;;1.52;0.75;;;20.40;79.40;;;;;;4952879;28;20047;-81
2022/07/15 08:46:36;;;;;;;1.58;0.77;;;21.20;75.30;;;;;;4953590;28;20032;-81
2022/07/15 08:49:09;;;;;;;1.80;0.45;;;22.20;69.30;;;;;;4950476;29;20468;-81
2022/07/15 08:51:41;;;;;;;1.52;0.60;;;23.30;61.20;;;;;;4954378;28;20058;-83
2022/07/15 08:54:07;;;;;;;2.08;0.75;;;24.00;57.90;;;;;;4954506;29;20042;-82
2022/07/15 08:56:35;;;;;;;1.55;0.77;;;25.00;57.70;;;;;;4952892;29;20592;-81
2022/07/15 08:59:02;;;;;;;2.72;0.80;;;25.90;52.90;;;;;;4954551;29;20023;-81
2022/07/15 09:01:29;;;;;;;1.58;0.80;;;26.50;46.60;;;;;;4941894;28;20015;-82
2022/07/15 09:03:56;;;;;;;3.90;0.80;;;27.10;42.40;;;;;;4954308;28;20392;-83
2022/07/15 09:06:36;;;;;;;1.85;0.57;;;27.60;42.60;;;;;;4954634;28;20530;-81
2022/07/15 09:09:36;;;;;;;3.45;1.45;;;27.90;42.20;;;;;;4954326;28;20029;-81
2022/07/15 09:12:07;;;;;;;0.77;0.40;;;28.40;42.20;;;;;;4951898;28;20680;-81
2022/07/15 09:14:34;;;;;;;;;;;29.20;39.30;;;;;;4954836;28;20019;-82
2022/07/15 09:20:04;;;;;;;1.02;0.43;;;28.20;38.40;;;;;;4991710;28;20042;-79
2022/07/15 09:22:51;;;;;;;1.17;0.55;;;28.40;36.90;;;;;;4988532;28;20080;-79
2022/07/15 09:25:17;;;;;;;1.48;0.52;;;28.90;36.30;;;;;;4994116;28;20414;-79
2022/07/15 09:27:44;;;;;;;1.70;0.30;;;29.60;34.70;;;;;;4987142;28;20400;-79
2022/07/15 09:36:22;;;;;;;1.13;0.20;;;30.50;31.20;;;;;;4981851;28;20093;-79
2022/07/15 09:39:03;;;;;;;0.80;0.30;;;31.40;30.00;;;;;;4968256;28;20029;-79
2022/07/15 09:41:34;;;;;;;0.85;0.38;;;32.20;29.20;;;;;;4974409;28;20431;-77
2022/07/15 09:44:04;;;;;;;0.57;0.20;;;32.70;29.00;;;;;;4973673;28;20607;-77
2022/07/15 09:46:50;;;;;;;1.80;0.27;;;32.60;26.90;;;;;;4973646;28;20756;-77
2022/07/15 09:49:24;;;;;;;1.20;0.32;;;32.40;28.30;;;;;;4972805;28;20038;-77
2022/07/15 09:52:04;;;;;;;1.63;0.50;;;32.70;27.80;;;;;;4973947;28;20387;-77
2022/07/15 09:54:39;;;;;;;1.15;0.20;;;33.00;27.90;;;;;;4974191;28;20023;-79
2022/07/15 09:57:10;;;;;;;0.80;0.32;;;33.30;28.20;;;;;;4973906;28;20066;-80
2022/07/15 09:59:36;;;;;;;;;;;33.00;28.10;;;;;;4981129;28;20026;-80
2022/07/15 10:02:02;;;;;;;1.27;0.47;;;32.50;27.00;;;;;;4974109;28;19968;-79
2022/07/15 10:04:29;;;;;;;0.10;0.10;;;32.80;28.30;;;;;;4973632;28;20105;-78
2022/07/15 10:06:57;;;;;;;1.80;0.32;;;32.60;26.80;;;;;;4974095;28;20015;-80
2022/07/15 10:09:24;;;;;;;1.48;0.30;;;33.60;27.80;;;;;;4973499;28;20217;-79
2022/07/15 10:11:53;;;;;;;2.28;0.50;;;34.20;26.30;;;;;;4973849;28;20442;-80
2022/07/15 10:14:56;;;;;;;1.38;0.38;;;34.50;24.70;;;;;;4973138;28;20019;-80
2022/07/15 10:17:43;;;;;;;0.73;0.20;;;34.90;26.30;;;;;;4991056;23;20026;-79
2022/07/15 10:20:37;;;;;;;0.47;0.25;;;35.20;25.60;;;;;;4965637;28;20055;-79
2022/07/15 10:23:34;;;;;;;0.52;0.10;;;35.80;24.20;;;;;;4954548;28;20023;-78
2022/07/15 10:26:06;;;;;;;0.55;0.20;;;36.40;23.90;;;;;;4940397;28;20031;-79
2022/07/15 10:28:52;;;;;;;2.03;0.25;;;36.50;24.10;;;;;;4952026;28;20038;-78
2022/07/15 10:31:21;;;;;;;0.40;0.20;;;35.90;22.00;;;;;;4953097;28;20047;-79
2022/07/15 10:34:20;;;;;;;0.50;0.20;;;36.30;23.20;;;;;;4952547;28;20023;-79
2022/07/15 10:36:49;;;;;;;0.82;0.20;;;36.30;21.70;;;;;;4917330;28;20034;-80
2022/07/15 10:39:20;;;;;;;0.57;0.20;;;36.20;23.60;;;;;;4951328;28;20038;-79
2022/07/15 10:42:02;;;;;;;1.55;0.20;;;36.90;24.20;;;;;;4952613;28;20074;-79
2022/07/15 10:44:31;;;;;;;1.48;0.13;;;36.60;23.00;;;;;;4951430;28;20067;-79
2022/07/15 10:47:12;;;;;;;0.75;0.20;;;37.40;22.60;;;;;;4931738;29;20114;-79
2022/07/15 10:49:38;;;;;;;;;;;38.60;19.90;;;;;;4953071;28;20031;-80
2022/07/15 10:52:26;;;;;;;0.63;0.25;;;38.60;20.00;;;;;;4952676;28;19914;-80
2022/07/15 10:55:04;;;;;;;2.75;0.28;;;37.70;19.60;;;;;;4952487;28;20081;-80
2022/07/15 10:57:44;;;;;;;0.63;0.30;;;37.70;24.10;;;;;;4952327;29;20372;-79
2022/07/15 11:00:33;;;;;;;;;;;37.70;19.40;;;;;;4952754;28;20028;-80
2022/07/15 11:03:06;;;;;;;0.55;0.30;;;38.10;20.60;;;;;;4939115;29;19926;-80
2022/07/15 11:05:32;;;;;;;1.25;0.32;;;38.50;18.80;;;;;;4951840;28;20030;-80
2022/07/15 11:07:57;;;;;;;0.55;0.25;;;38.60;19.80;;;;;;4952425;28;20035;-79
2022/07/15 11:10:24;;;;;;;0.55;0.20;;;38.20;20.90;;;;;;4952364;28;20069;-80
2022/07/15 11:12:50;;;;;;;0.47;0.40;;;38.40;19.70;;;;;;4952490;28;20059;-79
2022/07/15 11:15:24;;;;;;;0.85;0.20;;;38.40;19.70;;;;;;4952735;28;20527;-80
2022/07/15 11:17:54;;;;;;;0.30;0.20;;;39.20;19.10;;;;;;4942418;23;20054;-80
2022/07/15 11:20:27;;;;;;;0.30;0.30;;;40.20;20.60;;;;;;4971173;28;20150;-80
2022/07/15 11:22:55;;;;;;;1.88;0.40;;;40.60;18.60;;;;;;4972463;28;20264;-80
2022/07/15 11:25:37;;;;;;;0.30;0.20;;;41.10;19.80;;;;;;4972411;28;20055;-81
2022/07/15 11:28:07;;;;;;;1.55;0.47;;;40.90;19.80;;;;;;4966948;28;20023;-81
2022/07/15 11:30:38;;;;;;;2.20;0.38;;;40.40;19.60;;;;;;4971571;28;20102;-81
2022/07/15 11:33:07;;;;;;;1.23;0.35;;;39.80;19.50;;;;;;4971322;28;20134;-80
2022/07/15 11:35:43;;;;;;;1.35;0.32;;;40.10;22.40;;;;;;4971213;28;20019;-81
2022/07/15 11:38:09;;;;;;;1.08;0.38;;;38.90;22.20;;;;;;4971518;28;20022;-82
2022/07/15 11:46:05;;;;;;;2.00;0.88;;;38.20;24.10;;;;;;4958848;28;20427;-81
2022/07/15 11:48:38;;;;;;;1.10;0.45;;;36.60;23.90;;;;;;4958910;28;20027;-82
2022/07/15 11:51:06;;;;;;;2.65;0.55;;;36.70;25.30;;;;;;4971168;28;20042;-84
2022/07/15 11:53:41;;;;;;;1.65;0.35;;;36.70;23.70;;;;;;4970119;28;20169;-83
2022/07/15 11:56:08;;;;;;;1.48;0.40;;;37.70;23.70;;;;;;4965776;28;20026;-82
2022/07/15 11:58:40;;;;;;;1.25;0.40;;;38.40;24.00;;;;;;4971119;28;20376;-83
2022/07/15 12:01:15;;;;;;;1.38;0.40;;;37.00;23.30;;;;;;4971213;28;20546;-81
2022/07/15 12:03:52;;;;;;;1.25;0.30;;;35.10;23.90;;;;;;4971195;28;20037;-82
2022/07/15 12:06:30;;;;;;;1.42;0.60;;;34.30;25.50;;;;;;4971289;28;20562;-81
2022/07/15 12:09:03;;;;;;;0.70;0.38;;;35.30;26.10;;;;;;4975457;28;20023;-84
2022/07/15 12:11:32;;;;;;;3.65;0.30;;;35.60;24.10;;;;;;4961823;28;20476;-88
2022/07/15 12:14:03;;;;;;;1.88;0.43;;;36.40;24.10;;;;;;4974885;28;20100;-83
2022/07/15 12:16:35;;;;;;;2.05;0.47;;;37.30;23.60;;;;;;4974625;28;20023;-85
2022/07/15 12:19:07;;;;;;;1.15;0.30;;;37.90;23.70;;;;;;4972418;23;20138;-82
2022/07/15 12:21:35;;;;;;;0.65;0.40;;;38.10;22.80;;;;;;4956405;28;20035;-81
2022/07/15 12:24:08;;;;;;;1.20;0.30;;;38.10;21.90;;;;;;4956531;28;20357;-81
2022/07/15 12:26:38;;;;;;;0.52;0.43;;;37.90;22.50;;;;;;4955298;28;20219;-81
2022/07/15 12:29:05;;;;;;;0.60;0.23;;;37.80;22.00;;;;;;4956583;28;20042;-81
2022/07/15 12:31:33;;;;;;;0.77;0.20;;;37.20;22.40;;;;;;4956445;28;20027;-82
2022/07/15 12:33:59;;;;;;;2.15;0.40;;;37.70;22.00;;;;;;4955977;28;20019;-80
2022/07/15 12:36:27;;;;;;;0.35;0.20;;;37.90;21.70;;;;;;4956151;28;20019;-82
2022/07/15 12:39:15;;;;;;;0.52;0.30;;;37.30;21.60;;;;;;4956044;28;20085;-82
2022/07/15 12:41:42;;;;;;;1.50;0.47;;;37.60;21.60;;;;;;4951349;28;20027;-81
2022/07/15 12:44:09;;;;;;;1.45;0.25;;;36.50;22.10;;;;;;4956389;28;20400;-82
2022/07/15 12:46:57;;;;;;;0.50;0.20;;;36.70;23.10;;;;;;4956010;28;20476;-81
2022/07/15 12:49:50;;;;;;;0.95;0.13;;;37.80;23.40;;;;;;4957336;28;20019;-81
2022/07/15 12:52:20;;;;;;;0.38;0.20;;;38.00;22.80;;;;;;4956077;28;20384;-80
2022/07/15 12:54:47;;;;;;;1.45;0.30;;;37.30;22.70;;;;;;4955686;28;20480;-81
2022/07/15 12:57:26;;;;;;;1.45;0.30;;;36.70;22.70;;;;;;4955641;28;20071;-82
2022/07/15 12:59:54;;;;;;;0.95;0.10;;;36.90;23.20;;;;;;4954602;28;20034;-81
2022/07/15 13:02:21;;;;;;;1.00;0.17;;;37.40;23.30;;;;;;4955745;28;20028;-83
2022/07/15 13:04:47;;;;;;;0.55;0.30;;;38.10;21.80;;;;;;4955427;28;20500;-82
2022/07/15 13:07:14;;;;;;;0.65;0.30;;;38.20;21.90;;;;;;4955357;28;20039;-82
2022/07/15 13:09:40;;;;;;;1.15;0.20;;;39.30;22.20;;;;;;4955545;28;20507;-82
2022/07/15 13:12:08;;;;;;;0.57;0.30;;;39.30;21.20;;;;;;4955369;28;20023;-82
2022/07/15 13:14:35;;;;;;;0.65;0.40;;;40.20;21.80;;;;;;4955349;28;20384;-81
2022/07/15 13:17:01;;;;;;;2.80;0.30;;;40.50;22.10;;;;;;4959368;28;20018;-81
2022/07/15 13:19:27;;;;;;;2.25;0.30;;;40.00;21.10;;;;;;4954644;28;20027;-81
2022/07/15 13:21:53;;;;;;;1.48;0.38;;;38.70;20.70;;;;;;4955344;28;20031;-81
2022/07/15 13:24:18;;;;;;;1.17;0.40;;;38.70;23.80;;;;;;4955292;28;20023;-81
2022/07/15 13:26:44;;;;;;;1.08;0.30;;;38.70;22.20;;;;;;4954983;28;20510;-83
2022/07/15 13:29:10;;;;;;;0.38;0.20;;;38.60;22.10;;;;;;4953951;28;20037;-83
2022/07/15 13:31:36;;;;;;;0.95;0.50;;;38.70;22.40;;;;;;4955449;28;20575;-84
2022/07/15 13:34:01;;;;;;;0.50;0.30;;;40.20;21.80;;;;;;4955158;28;20026;-85
2022/07/15 13:36:27;;;;;;;0.60;0.30;;;40.90;21.20;;;;;;4955254;28;20098;-83
2022/07/15 13:38:53;;;;;;;0.60;0.30;;;40.90;20.40;;;;;;4955033;28;20031;-82
2022/07/15 13:41:19;;;;;;;0.80;0.40;;;41.00;20.50;;;;;;4954978;28;20031;-83
2022/07/15 13:43:44;;;;;;;1.35;0.40;;;40.60;20.70;;;;;;4955109;28;20034;-83
2022/07/15 13:46:10;;;;;;;1.08;0.35;;;39.60;21.80;;;;;;4955121;28;20050;-82
2022/07/15 13:48:36;;;;;;;0.95;0.47;;;38.90;21.40;;;;;;4987262;23;20125;-86
2022/07/15 13:53:45;;;;;;;1.20;0.30;;;39.00;22.50;;;;;;4955940;28;20661;-83
2022/07/15 13:56:12;;;;;;;2.15;0.38;;;39.10;21.70;;;;;;4963753;28;20574;-84
2022/07/15 13:58:38;;;;;;;0.68;0.30;;;39.40;21.40;;;;;;4949270;28;20035;-81
2022/07/15 14:01:03;;;;;;;0.75;0.30;;;39.60;21.20;;;;;;4949580;28;20042;-81
2022/07/15 14:03:29;;;;;;;0.50;0.22;;;40.50;20.80;;;;;;4950599;28;20488;-81
2022/07/15 14:05:55;;;;;;;3.17;0.47;;;39.00;21.20;;;;;;4965362;28;20027;-79
2022/07/15 14:08:21;;;;;;;0.82;0.45;;;39.10;21.10;;;;;;4972054;28;20018;-84
2022/07/15 14:10:47;;;;;;;1.25;0.20;;;38.80;21.30;;;;;;4972573;28;20039;-82
2022/07/15 14:13:13;;;;;;;1.27;0.30;;;39.50;21.70;;;;;;4972003;28;20428;-84
2022/07/15 14:15:38;;;;;;;1.17;0.30;;;39.00;22.70;;;;;;4971981;28;20149;-83
2022/07/15 14:18:05;;;;;;;1.85;0.50;;;39.40;22.00;;;;;;4968049;28;20376;-83
2022/07/15 14:20:31;;;;;;;0.50;0.20;;;39.60;21.80;;;;;;4971928;28;20035;-82
2022/07/15 14:22:57;;;;;;;0.75;0.30;;;39.90;21.00;;;;;;4971998;28;20030;-82
2022/07/15 14:25:23;;;;;;;0.93;0.40;;;39.20;21.00;;;;;;4972364;28;20050;-83
2022/07/15 14:27:48;;;;;;;0.68;0.22;;;39.30;21.50;;;;;;4971859;28;20081;-82
2022/07/15 14:30:16;;;;;;;1.02;0.43;;;39.70;20.10;;;;;;4954065;28;20081;-82
2022/07/15 14:32:42;;;;;;;3.60;0.38;;;39.50;20.20;;;;;;4955348;28;20019;-82
2022/07/15 14:35:08;;;;;;;0.35;0.20;;;38.90;20.40;;;;;;4971213;28;20491;-82
2022/07/15 14:37:34;;;;;;;0.50;0.10;;;38.90;21.50;;;;;;4971947;28;20153;-83
2022/07/15 14:40:01;;;;;;;1.05;0.30;;;38.90;21.00;;;;;;4971806;28;20396;-86
2022/07/15 14:42:27;;;;;;;2.47;0.50;;;39.10;22.50;;;;;;4971989;28;20038;-84
2022/07/15 14:44:53;;;;;;;1.25;1.02;;;38.60;20.90;;;;;;4953395;28;20030;-86
2022/07/15 14:49:58;;;;;;;2.17;0.38;;;38.20;21.30;;;;;;4945291;28;20428;-81
2022/07/15 14:52:24;;;;;;;1.23;0.30;;;37.60;21.50;;;;;;4947763;28;20034;-77
2022/07/15 14:54:50;;;;;;;0.10;0.10;;;36.80;22.20;;;;;;4945148;28;20114;-80
2022/07/15 14:57:16;;;;;;;0.40;0.20;;;37.30;22.60;;;;;;4940742;28;20039;-80
2022/07/15 14:59:42;;;;;;;0.30;0.30;;;37.10;22.40;;;;;;4941591;28;20035;-84
2022/07/15 15:02:09;;;;;;;0.65;0.20;;;36.50;23.50;;;;;;4943381;28;20057;-82
2022/07/15 15:04:36;;;;;;;0.57;0.25;;;36.40;23.10;;;;;;4941380;28;20344;-84
2022/07/15 15:07:02;;;;;;;0.22;0.20;;;36.40;23.80;;;;;;4944072;28;20031;-84
2022/07/15 15:09:29;;;;;;;1.20;0.35;;;36.10;22.60;;;;;;4936831;28;20027;-87
2022/07/15 15:11:55;;;;;;;0.70;0.38;;;36.20;23.60;;;;;;4943303;28;20054;-83
2022/07/15 15:14:20;;;;;;;1.20;0.50;;;35.90;23.80;;;;;;4953086;28;20023;-83
2022/07/15 15:16:46;;;;;;;1.48;0.30;;;35.90;24.00;;;;;;4951920;28;20027;-79
2022/07/15 15:19:12;;;;;;;1.45;0.30;;;35.80;24.00;;;;;;4952320;28;20416;-79
2022/07/15 15:21:38;;;;;;;1.88;0.30;;;35.30;23.50;;;;;;4951987;28;20145;-81
2022/07/15 15:24:06;;;;;;;1.40;0.30;;;35.00;23.90;;;;;;4953112;28;20019;-81
2022/07/15 15:26:32;;;;;;;1.55;0.40;;;34.50;23.40;;;;;;4953218;28;20476;-81
2022/07/15 15:28:58;;;;;;;0.40;0.40;;;35.00;23.80;;;;;;4953305;28;20038;-80
2022/07/15 15:31:26;;;;;;;1.60;0.40;;;34.60;24.70;;;;;;4953399;28;20554;-80
2022/07/15 15:33:52;;;;;;;1.05;0.30;;;33.80;24.80;;;;;;4953151;28;20588;-82
2022/07/15 15:36:19;;;;;;;1.05;0.40;;;33.90;25.50;;;;;;4953020;28;20027;-82
2022/07/15 15:38:45;;;;;;;1.48;0.32;;;33.80;24.80;;;;;;4951818;28;20024;-82
2022/07/15 15:41:11;;;;;;;1.65;0.30;;;32.80;25.10;;;;;;4952977;28;20043;-80
2022/07/15 15:43:36;;;;;;;2.15;0.40;;;32.90;26.80;;;;;;4956897;28;20023;-82
2022/07/15 15:46:03;;;;;;;4.18;0.60;;;32.90;28.00;;;;;;4956688;28;20027;-81
2022/07/15 15:48:29;;;;;;;0.40;0.40;;;32.60;26.80;;;;;;4973450;23;20108;-76
2022/07/15 15:50:54;;;;;;;1.73;0.30;;;32.30;27.50;;;;;;4955602;28;20028;-76
2022/07/15 15:53:20;;;;;;;0.63;0.22;;;31.70;27.00;;;;;;4950090;28;20041;-77
2022/07/15 15:55:46;;;;;;;0.98;0.30;;;31.20;26.60;;;;;;4956840;28;20027;-76
2022/07/15 15:58:12;;;;;;;1.35;0.40;;;31.00;26.30;;;;;;4956108;28;20023;-77
2022/07/15 16:00:38;;;;;;;1.00;0.57;;;30.40;27.30;;;;;;4956052;29;20173;-76
2022/07/15 16:03:04;;;;;;;0.90;0.30;;;29.70;28.90;;;;;;4955313;29;20030;-78
2022/07/15 16:05:30;;;;;;;0.90;0.30;;;28.90;29.50;;;;;;4955316;29;20023;-76
2022/07/15 16:07:55;;;;;;;0.75;0.50;;;28.40;30.00;;;;;;4955613;28;20026;-77
2022/07/15 16:10:21;;;;;;;1.92;0.38;;;27.90;31.40;;;;;;4955380;29;20058;-76
2022/07/15 16:12:47;;;;;;;1.05;0.40;;;27.90;30.30;;;;;;4954969;29;20531;-76
2022/07/15 16:15:13;;;;;;;0.68;0.22;;;27.50;29.10;;;;;;4955391;28;20031;-77
2022/07/15 16:17:39;;;;;;;1.60;0.47;;;26.80;28.30;;;;;;4955055;29;20051;-76
2022/07/15 16:20:05;;;;;;;0.70;0.52;;;26.50;29.20;;;;;;4950805;28;20503;-76
2022/07/15 16:25:16;;;;;;;1.05;0.77;;;26.10;29.50;;;;;;4955252;29;20017;-76
2022/07/15 16:27:42;;;;;;;1.48;0.30;;;26.20;29.70;;;;;;4954727;28;20057;-75
2022/07/15 16:30:08;;;;;;;0.50;0.40;;;26.10;30.30;;;;;;4953422;28;20068;-75
2022/07/15 16:32:35;;;;;;;1.90;0.40;;;26.10;30.70;;;;;;4954958;29;20015;-76
2022/07/15 16:35:01;;;;;;;0.25;0.25;;;26.00;32.20;;;;;;4954760;28;20026;-77
2022/07/15 16:37:27;;;;;;;1.27;0.45;;;25.80;31.30;;;;;;4954575;29;20023;-76
2022/07/15 16:39:52;;;;;;;1.88;0.47;;;25.70;32.90;;;;;;4953924;28;20472;-75
2022/07/15 16:42:18;;;;;;;2.63;0.45;;;25.70;33.90;;;;;;4955006;28;20089;-76
2022/07/15 16:44:44;;;;;;;2.00;0.40;;;25.70;35.30;;;;;;4954917;29;20024;-75
2022/07/15 16:47:10;;;;;;;0.93;0.52;;;25.60;34.10;;;;;;4955125;28;20030;-76
2022/07/15 16:49:36;;;;;;;1.02;0.50;;;25.50;35.40;;;;;;4985529;23;20085;-86
2022/07/15 16:52:01;;;;;;;1.83;0.50;;;25.40;36.90;;;;;;4974290;28;20085;-85
2022/07/15 16:54:27;;;;;;;1.38;0.43;;;25.00;40.70;;;;;;4973555;28;20030;-86
2022/07/15 16:56:54;;;;;;;3.25;0.50;;;24.80;41.90;;;;;;4974268;28;20026;-87
2022/07/15 16:59:20;;;;;;;2.30;0.98;;;24.60;43.40;;;;;;4974957;28;20097;-89
2022/07/15 17:01:47;;;;;;;1.65;0.52;;;24.30;43.50;;;;;;4973815;28;20487;-88
2022/07/15 17:04:13;;;;;;;1.98;0.73;;;24.00;43.30;;;;;;4981160;28;20015;-85
2022/07/15 17:06:39;;;;;;;1.33;0.88;;;23.90;43.10;;;;;;4973664;28;20491;-84
2022/07/15 17:09:05;;;;;;;3.20;0.80;;;23.70;44.10;;;;;;4972478;28;20122;-82
2022/07/15 17:11:31;;;;;;;0.40;0.30;;;23.60;46.00;;;;;;4966726;28;20437;-87
2022/07/15 17:13:57;;;;;;;1.35;0.40;;;23.60;43.30;;;;;;4971468;28;20061;-80
2022/07/15 17:16:23;;;;;;;1.98;0.43;;;23.60;43.00;;;;;;4973221;28;20019;-90
2022/07/15 17:18:49;;;;;;;2.40;0.68;;;23.50;43.70;;;;;;4972424;28;20391;-82